Unicom:                    122.8

AWOS:                  118.275

Elevation           1458’ MSL

TPA:                   2500’ MSL

06/24:         5003’ L   75’ W

PAPI:       06/Left     24/Left

(Operate lights on unicom freq.)

Traffic Pattern: Left

Beacon: Sunset to Sunrise

Windsock: yes, lighted

Segmented Circle: No

 

Cleveland Center: 126.72/291.65

FSS: Altoona

[Source: ADDS]
METAR
KFKL 172256Z AUTO VRB06KT 10SM FEW045 14/04 A3001 RMK AO2 SLP166 T01390044 $ =
KFKL 172000Z 1720/1818 29012G18KT P6SM SKC FM180000 VRB05KT P6SM SKC FM181700 19005KT P6SM BKN080
TAF
KFKL 172000Z 1720/1818 29012G18KT P6SM SKC FM180000 VRB05KT P6SM SKC FM181700 19005KT P6SM BKN080 =
[Source: ADDS]
METAR
KDUJ 172253Z AUTO 30013G17KT 10SM CLR 16/01 A2996 RMK AO2 SLP143 T01560011 =
KDUJ 171723Z 1718/1818 29013G22KT P6SM SKC FM172200 30012KT P6SM SKC FM181700 23005KT P6SM BKN140
TAF
KDUJ 171723Z 1718/1818 29013G22KT P6SM SKC FM172200 30012KT P6SM SKC FM181700 23005KT P6SM BKN140 =

Information.  


[Source: ADDS]
METAR
KFKL 172256Z AUTO VRB06KT 10SM FEW045 14/04 A3001 RMK AO2 SLP166 T01390044 $ =
KFKL 172000Z 1720/1818 29012G18KT P6SM SKC FM180000 VRB05KT P6SM SKC FM181700 19005KT P6SM BKN080
TAF
KFKL 172000Z 1720/1818 29012G18KT P6SM SKC FM180000 VRB05KT P6SM SKC FM181700 19005KT P6SM BKN080 =
[Source: ADDS]
METAR
KDUJ 172253Z AUTO 30013G17KT 10SM CLR 16/01 A2996 RMK AO2 SLP143 T01560011 =
KDUJ 171723Z 1718/1818 29013G22KT P6SM SKC FM172200 30012KT P6SM SKC FM181700 23005KT P6SM BKN140
TAF
KDUJ 171723Z 1718/1818 29013G22KT P6SM SKC FM172200 30012KT P6SM SKC FM181700 23005KT P6SM BKN140 =